Краснощелье

Карта отелей и гостиниц, располагающихся рядом с аэропортом Краснощелье :

Краснощелье Мурманская область 67° 20' 53.4588" N, 37° 4' 37.74" E
Код аэродрома ИКАО
ULMX
Код аэродрома RU
УЛМЬ
Координаты
N67.34818° E037.07715°
Превышение над уровнем моря
156
Основная полоса
12/30
Курс магнитный
119/299
Длина основной ВПП
650
Ширина основной ВПП
100
Покрытие основной ВПП
Нетвёрдое (грунт)
Освещение ВПП
Нет
Тип: 
Аэродром
Класс аэродрома: 
Принадлежность: 
ГА
Статус: 
Действующий
Сайт: 
E-mail аэродрома: 
Страна: 
Россия
Регион: 
Мурманская область
Город: 
Дополнительная информация: 
Оператор: нет данных. Аэропорт МВЛ-2. ОПРС: 490-"ША".

Найти трансфер

С помощью этой формы Вы можете найти трансфер из аэропорта Краснощелье в город, аэропорт или вокзал:

Карта места

Javascript is required to view this map.

Погода в аэропортах:

Авиационная погода в Махачкале

Регион: 
Погода METAR: 
URML 171830Z 06002MPS 9999 -RA OVC024 18/15 Q1016 R14/290060 NOSIG RMK QFE762/1016
Время наблюдения
2021-09-17T18:30:00Z
Температура C
18.0
Точка росы
15.0
Направление ветра
60
Скорость ветра (узлы)
4
Метео видимость
6.21
Явления погоды
-RA
Условия полета
MVFR
Аэропорт подробнее: 

Авиационная погода в Кневичи

Регион: 
Погода METAR: 
UHWW 171830Z 00000MPS 2100 0700E R25L/1600D PRFG OVC002 07/07 Q1014 R25L/0///70 NOSIG RMK QBB070 MT OBSC QFE759
Время наблюдения
2021-09-17T18:30:00Z
Температура C
7.0
Точка росы
7.0
Направление ветра
0
Скорость ветра (узлы)
0
Метео видимость
1.3
Явления погоды
PRFG
Условия полета
LIFR
Аэропорт подробнее: 

Авиационная погода в Храброво

Регион: 
Погода METAR: 
UMKK 171830Z 08006MPS 5000 -DZ BR OVC004 11/11 Q1011 R06/19//95 NOSIG RMK QBB120 OBST OBSC QFE757/1009
Время наблюдения
2021-09-17T18:30:00Z
Температура C
11.0
Точка росы
11.0
Направление ветра
80
Скорость ветра (узлы)
12
Метео видимость
3.11
Явления погоды
-DZ BR
Условия полета
LIFR
Аэропорт подробнее: 

Авиационная погода в аэропорту Новый

Регион: 
Погода METAR: 
UHHH 171830Z 24004MPS 9999 -SHRA FEW034CB 15/12 Q1009 R23R/190050 TEMPO 3100 -TSRA RMK QFE750/1001
Время наблюдения
2021-09-17T18:30:00Z
Температура C
15.0
Точка росы
12.0
Направление ветра
240
Скорость ветра (узлы)
8
Метео видимость
6.21
Явления погоды
-SHRA
Условия полета
VFR
Аэропорт подробнее: